sensor_id;sensor_type;location;lat;lon;timestamp;pressure;altitude;pressure_sealevel;temperature;humidity
46778;BME280;32536;47.128;8.746;2022-11-14T00:00:47;91578.34;;;8.71;52.47
46778;BME280;32536;47.128;8.746;2022-11-14T00:03:14;91579.53;;;8.67;52.46
46778;BME280;32536;47.128;8.746;2022-11-14T00:05:43;91582.59;;;8.65;52.69
46778;BME280;32536;47.128;8.746;2022-11-14T00:08:19;91578.75;;;8.70;52.30
46778;BME280;32536;47.128;8.746;2022-11-14T00:10:49;91572.94;;;8.78;52.48
46778;BME280;32536;47.128;8.746;2022-11-14T00:13:17;91573.31;;;8.84;52.11
46778;BME280;32536;47.128;8.746;2022-11-14T00:15:48;91572.50;;;8.87;51.73
46778;BME280;32536;47.128;8.746;2022-11-14T00:18:19;91579.72;;;8.90;51.85
46778;BME280;32536;47.128;8.746;2022-11-14T00:20:48;91580.91;;;8.86;51.85
46778;BME280;32536;47.128;8.746;2022-11-14T00:23:15;91570.66;;;8.80;51.91
46778;BME280;32536;47.128;8.746;2022-11-14T00:25:44;91569.16;;;8.76;52.27
46778;BME280;32536;47.128;8.746;2022-11-14T00:28:11;91566.53;;;8.72;52.30
46778;BME280;32536;47.128;8.746;2022-11-14T00:30:38;91573.75;;;8.75;52.44
46778;BME280;32536;47.128;8.746;2022-11-14T00:33:05;91571.81;;;8.79;52.19
46778;BME280;32536;47.128;8.746;2022-11-14T00:35:32;91572.22;;;8.78;52.04
46778;BME280;32536;47.128;8.746;2022-11-14T00:37:58;91570.72;;;8.73;51.89
46778;BME280;32536;47.128;8.746;2022-11-14T00:40:25;91567.63;;;8.75;52.14
46778;BME280;32536;47.128;8.746;2022-11-14T00:42:52;91563.03;;;8.79;51.39
46778;BME280;32536;47.128;8.746;2022-11-14T00:45:19;91566.88;;;8.78;51.84
46778;BME280;32536;47.128;8.746;2022-11-14T00:47:46;91566.13;;;8.74;51.77
46778;BME280;32536;47.128;8.746;2022-11-14T00:50:13;91568.84;;;8.67;52.29
46778;BME280;32536;47.128;8.746;2022-11-14T00:52:41;91564.69;;;8.65;52.05
46778;BME280;32536;47.128;8.746;2022-11-14T00:55:08;91557.44;;;8.62;52.21
46778;BME280;32536;47.128;8.746;2022-11-14T00:57:34;91557.06;;;8.60;52.39
46778;BME280;32536;47.128;8.746;2022-11-14T01:00:03;91555.94;;;8.58;52.06
46778;BME280;32536;47.128;8.746;2022-11-14T01:02:30;91556.31;;;8.60;51.95
46778;BME280;32536;47.128;8.746;2022-11-14T01:04:57;91569.66;;;8.60;52.06
46778;BME280;32536;47.128;8.746;2022-11-14T01:07:25;91554.41;;;8.60;51.79
46778;BME280;32536;47.128;8.746;2022-11-14T01:09:52;91564.31;;;8.63;52.10
46778;BME280;32536;47.128;8.746;2022-11-14T01:12:18;91554.00;;;8.65;51.95
46778;BME280;32536;47.128;8.746;2022-11-14T01:14:45;91561.59;;;8.67;51.85
46778;BME280;32536;47.128;8.746;2022-11-14T01:17:12;91543.28;;;8.69;51.77
46778;BME280;32536;47.128;8.746;2022-11-14T01:19:39;91558.88;;;8.74;51.94
46778;BME280;32536;47.128;8.746;2022-11-14T01:22:06;91551.19;;;8.80;51.93
46778;BME280;32536;47.128;8.746;2022-11-14T01:24:33;91542.44;;;8.79;51.79
46778;BME280;32536;47.128;8.746;2022-11-14T01:27:00;91545.06;;;8.83;51.99
46778;BME280;32536;47.128;8.746;2022-11-14T01:29:27;91535.50;;;8.86;51.55
46778;BME280;32536;47.128;8.746;2022-11-14T01:32:10;91527.50;;;8.86;51.65
46778;BME280;32536;47.128;8.746;2022-11-14T01:34:36;91537.00;;;8.90;51.72
46778;BME280;32536;47.128;8.746;2022-11-14T01:37:03;91527.06;;;8.91;51.80
46778;BME280;32536;47.128;8.746;2022-11-14T01:39:30;91512.91;;;8.94;51.97
46778;BME280;32536;47.128;8.746;2022-11-14T01:41:57;91514.44;;;8.95;51.89
46778;BME280;32536;47.128;8.746;2022-11-14T01:44:51;91515.97;;;8.96;52.06
46778;BME280;32536;47.128;8.746;2022-11-14T01:47:25;91506.38;;;8.99;52.12
46778;BME280;32536;47.128;8.746;2022-11-14T01:50:01;91515.53;;;9.01;52.18
46778;BME280;32536;47.128;8.746;2022-11-14T01:52:35;91520.41;;;9.06;51.82
46778;BME280;32536;47.128;8.746;2022-11-14T01:55:06;91526.09;;;9.12;51.51
46778;BME280;32536;47.128;8.746;2022-11-14T01:57:39;91527.97;;;9.15;51.42
46778;BME280;32536;47.128;8.746;2022-11-14T02:00:10;91523.75;;;9.18;51.53
46778;BME280;32536;47.128;8.746;2022-11-14T02:02:38;91522.66;;;9.11;51.62
46778;BME280;32536;47.128;8.746;2022-11-14T02:05:08;91522.72;;;9.04;51.77
46778;BME280;32536;47.128;8.746;2022-11-14T02:07:37;91516.28;;;8.98;51.83
46778;BME280;32536;47.128;8.746;2022-11-14T02:10:14;91515.19;;;8.95;52.03
46778;BME280;32536;47.128;8.746;2022-11-14T02:12:44;91517.84;;;8.95;52.12
46778;BME280;32536;47.128;8.746;2022-11-14T02:15:12;91518.59;;;9.00;52.01
46778;BME280;32536;47.128;8.746;2022-11-14T02:17:41;91506.38;;;8.99;52.04
46778;BME280;32536;47.128;8.746;2022-11-14T02:22:38;91503.72;;;8.99;52.36
46778;BME280;32536;47.128;8.746;2022-11-14T02:25:07;91509.81;;;8.99;52.53
46778;BME280;32536;47.128;8.746;2022-11-14T02:27:37;91510.91;;;9.02;52.42
46778;BME280;32536;47.128;8.746;2022-11-14T02:30:07;91509.38;;;9.04;52.16
46778;BME280;32536;47.128;8.746;2022-11-14T02:32:37;91513.56;;;9.05;52.24
46778;BME280;32536;47.128;8.746;2022-11-14T02:35:04;91503.25;;;9.07;52.02
46778;BME280;32536;47.128;8.746;2022-11-14T02:37:31;91505.88;;;9.11;52.28
46778;BME280;32536;47.128;8.746;2022-11-14T02:39:58;91511.53;;;9.17;52.23
46778;BME280;32536;47.128;8.746;2022-11-14T02:42:25;91504.66;;;9.19;52.16
46778;BME280;32536;47.128;8.746;2022-11-14T02:44:52;91508.41;;;9.25;52.12
46778;BME280;32536;47.128;8.746;2022-11-14T02:47:18;91509.84;;;9.30;52.16
46778;BME280;32536;47.128;8.746;2022-11-14T02:49:45;91504.47;;;9.34;52.19
46778;BME280;32536;47.128;8.746;2022-11-14T02:52:12;91500.28;;;9.36;52.28
46778;BME280;32536;47.128;8.746;2022-11-14T02:54:39;91491.84;;;9.38;52.19
46778;BME280;32536;47.128;8.746;2022-11-14T02:57:05;91491.03;;;9.41;52.57
46778;BME280;32536;47.128;8.746;2022-11-14T02:59:32;91491.72;;;9.49;52.15
46778;BME280;32536;47.128;8.746;2022-11-14T03:02:00;91490.84;;;9.55;51.84
46778;BME280;32536;47.128;8.746;2022-11-14T03:04:27;91494.97;;;9.64;51.86
46778;BME280;32536;47.128;8.746;2022-11-14T03:06:53;91495.66;;;9.68;52.10
46778;BME280;32536;47.128;8.746;2022-11-14T03:09:20;91493.00;;;9.68;51.90
46778;BME280;32536;47.128;8.746;2022-11-14T03:11:47;91485.00;;;9.64;52.03
46778;BME280;32536;47.128;8.746;2022-11-14T03:14:14;91490.84;;;9.55;52.25
46778;BME280;32536;47.128;8.746;2022-11-14T03:16:40;91490.56;;;9.50;52.09
46778;BME280;32536;47.128;8.746;2022-11-14T03:19:07;91488.63;;;9.50;52.17
46778;BME280;32536;47.128;8.746;2022-11-14T03:21:34;91491.69;;;9.52;52.27
46778;BME280;32536;47.128;8.746;2022-11-14T03:24:00;91492.78;;;9.55;52.55
46778;BME280;32536;47.128;8.746;2022-11-14T03:26:27;91486.25;;;9.59;52.14
46778;BME280;32536;47.128;8.746;2022-11-14T03:28:54;91487.69;;;9.64;52.31
46778;BME280;32536;47.128;8.746;2022-11-14T03:31:21;91493.41;;;9.66;52.58
46778;BME280;32536;47.128;8.746;2022-11-14T03:33:47;91493.00;;;9.68;52.45
46778;BME280;32536;47.128;8.746;2022-11-14T03:36:14;91491.84;;;9.69;52.17
46778;BME280;32536;47.128;8.746;2022-11-14T03:38:42;91492.19;;;9.71;52.56
46778;BME280;32536;47.128;8.746;2022-11-14T03:41:09;91500.56;;;9.76;52.25
46778;BME280;32536;47.128;8.746;2022-11-14T03:43:36;91492.44;;;9.80;51.94
46778;BME280;32536;47.128;8.746;2022-11-14T03:46:03;91490.56;;;9.81;52.00
46778;BME280;32536;47.128;8.746;2022-11-14T03:48:30;91498.16;;;9.82;51.69
46778;BME280;32536;47.128;8.746;2022-11-14T03:50:57;91500.44;;;9.84;52.18
46778;BME280;32536;47.128;8.746;2022-11-14T03:53:24;91498.53;;;9.84;52.07
46778;BME280;32536;47.128;8.746;2022-11-14T03:55:51;91501.25;;;9.81;51.93
46778;BME280;32536;47.128;8.746;2022-11-14T03:58:18;91506.25;;;9.78;51.90
46778;BME280;32536;47.128;8.746;2022-11-14T04:00:45;91506.25;;;9.78;51.98
46778;BME280;32536;47.128;8.746;2022-11-14T04:03:12;91503.88;;;9.84;52.24
46778;BME280;32536;47.128;8.746;2022-11-14T04:05:38;91505.41;;;9.85;52.24
46778;BME280;32536;47.128;8.746;2022-11-14T04:08:10;91511.13;;;9.84;52.18
46778;BME280;32536;47.128;8.746;2022-11-14T04:10:36;91514.22;;;9.82;52.09
46778;BME280;32536;47.128;8.746;2022-11-14T04:13:04;91509.69;;;9.79;52.42
46778;BME280;32536;47.128;8.746;2022-11-14T04:15:31;91507.75;;;9.80;51.97
46778;BME280;32536;47.128;8.746;2022-11-14T04:17:59;91493.97;;;9.81;51.89
46778;BME280;32536;47.128;8.746;2022-11-14T04:20:26;91495.13;;;9.80;52.22
46778;BME280;32536;47.128;8.746;2022-11-14T04:22:52;91509.13;;;9.60;52.72
46778;BME280;32536;47.128;8.746;2022-11-14T04:25:19;91493.19;;;9.53;52.49
46778;BME280;32536;47.128;8.746;2022-11-14T04:27:46;91497.78;;;9.53;52.61
46778;BME280;32536;47.128;8.746;2022-11-14T04:30:12;91490.13;;;9.55;52.88
46778;BME280;32536;47.128;8.746;2022-11-14T04:32:39;91488.16;;;9.59;52.32
46778;BME280;32536;47.128;8.746;2022-11-14T04:35:06;91477.44;;;9.59;52.54
46778;BME280;32536;47.128;8.746;2022-11-14T04:37:33;91483.56;;;9.59;53.03
46778;BME280;32536;47.128;8.746;2022-11-14T04:40:04;91475.50;;;9.63;52.37
46778;BME280;32536;47.128;8.746;2022-11-14T04:42:31;91475.84;;;9.65;52.95
46778;BME280;32536;47.128;8.746;2022-11-14T04:44:58;91475.84;;;9.65;53.07
46778;BME280;32536;47.128;8.746;2022-11-14T04:47:24;91472.00;;;9.66;52.91
46778;BME280;32536;47.128;8.746;2022-11-14T04:49:51;91478.41;;;9.72;52.50
46778;BME280;32536;47.128;8.746;2022-11-14T04:52:18;91474.50;;;9.81;52.79
46778;BME280;32536;47.128;8.746;2022-11-14T04:54:45;91469.06;;;9.88;52.91
46778;BME280;32536;47.128;8.746;2022-11-14T04:57:11;91473.53;;;9.94;52.42
46778;BME280;32536;47.128;8.746;2022-11-14T04:59:38;91479.19;;;10.00;52.65
46778;BME280;32536;47.128;8.746;2022-11-14T05:02:05;91479.16;;;10.04;52.50
46778;BME280;32536;47.128;8.746;2022-11-14T05:04:32;91484.03;;;10.09;52.41
46778;BME280;32536;47.128;8.746;2022-11-14T05:06:59;91490.44;;;10.15;52.64
46778;BME280;32536;47.128;8.746;2022-11-14T05:09:25;91484.63;;;10.20;52.62
46778;BME280;32536;47.128;8.746;2022-11-14T05:11:52;91484.19;;;10.25;52.00
46778;BME280;32536;47.128;8.746;2022-11-14T05:14:19;91481.53;;;10.25;52.58
46778;BME280;32536;47.128;8.746;2022-11-14T05:16:46;91480.38;;;10.27;53.00
46778;BME280;32536;47.128;8.746;2022-11-14T05:19:13;91485.31;;;10.28;52.97
46778;BME280;32536;47.128;8.746;2022-11-14T05:21:39;91485.31;;;10.28;53.19
46778;BME280;32536;47.128;8.746;2022-11-14T05:24:06;91486.03;;;10.29;52.60
46778;BME280;32536;47.128;8.746;2022-11-14T05:26:33;91494.84;;;10.29;52.91
46778;BME280;32536;47.128;8.746;2022-11-14T05:29:00;91505.09;;;10.34;52.69
46778;BME280;32536;47.128;8.746;2022-11-14T05:31:27;91498.16;;;10.40;53.29
46778;BME280;32536;47.128;8.746;2022-11-14T05:33:53;91506.53;;;10.43;52.83
46778;BME280;32536;47.128;8.746;2022-11-14T05:36:20;91510.31;;;10.45;53.09
46778;BME280;32536;47.128;8.746;2022-11-14T05:38:47;91504.13;;;10.48;52.80
46778;BME280;32536;47.128;8.746;2022-11-14T05:41:16;91509.06;;;10.53;52.61
46778;BME280;32536;47.128;8.746;2022-11-14T05:43:47;91518.41;;;10.65;53.06
46778;BME280;32536;47.128;8.746;2022-11-14T05:46:14;91521.00;;;10.72;52.67
46778;BME280;32536;47.128;8.746;2022-11-14T05:48:42;91518.19;;;10.80;53.20
46778;BME280;32536;47.128;8.746;2022-11-14T05:51:11;91526.13;;;10.87;53.17
46778;BME280;32536;47.128;8.746;2022-11-14T05:53:38;91524.47;;;10.93;52.89
46778;BME280;32536;47.128;8.746;2022-11-14T05:56:10;91520.94;;;11.00;52.41
46778;BME280;32536;47.128;8.746;2022-11-14T05:58:37;91522.25;;;11.12;53.60
46778;BME280;32536;47.128;8.746;2022-11-14T06:01:07;91519.44;;;11.19;52.06
46778;BME280;32536;47.128;8.746;2022-11-14T06:03:41;91518.34;;;11.16;52.41
46778;BME280;32536;47.128;8.746;2022-11-14T06:06:15;91522.19;;;11.15;52.36
46778;BME280;32536;47.128;8.746;2022-11-14T06:08:43;91522.19;;;11.15;52.26
46778;BME280;32536;47.128;8.746;2022-11-14T06:11:13;91516.00;;;11.18;53.06
46778;BME280;32536;47.128;8.746;2022-11-14T06:13:42;91511.81;;;11.17;52.84
46778;BME280;32536;47.128;8.746;2022-11-14T06:16:14;91514.06;;;11.19;52.56
46778;BME280;32536;47.128;8.746;2022-11-14T06:18:43;91519.06;;;11.20;52.58
46778;BME280;32536;47.128;8.746;2022-11-14T06:21:19;91528.59;;;11.21;53.64
46778;BME280;32536;47.128;8.746;2022-11-14T06:23:47;91527.34;;;11.26;52.84
46778;BME280;32536;47.128;8.746;2022-11-14T06:28:50;91520.03;;;11.30;53.00
46778;BME280;32536;47.128;8.746;2022-11-14T06:31:19;91520.75;;;11.31;53.08
46778;BME280;32536;47.128;8.746;2022-11-14T06:33:46;91527.66;;;11.32;53.20
46778;BME280;32536;47.128;8.746;2022-11-14T06:36:13;91531.91;;;11.29;52.99
46778;BME280;32536;47.128;8.746;2022-11-14T06:38:41;91540.28;;;11.31;52.86
46778;BME280;32536;47.128;8.746;2022-11-14T06:41:17;91532.59;;;11.33;53.20
46778;BME280;32536;47.128;8.746;2022-11-14T06:43:48;91534.03;;;11.38;52.91
46778;BME280;32536;47.128;8.746;2022-11-14T06:46:17;91527.44;;;11.43;52.63
46778;BME280;32536;47.128;8.746;2022-11-14T06:48:46;91523.13;;;11.49;52.38
46778;BME280;32536;47.128;8.746;2022-11-14T06:51:15;91521.53;;;11.51;52.71
46778;BME280;32536;47.128;8.746;2022-11-14T06:53:42;91522.22;;;11.56;52.49
46778;BME280;32536;47.128;8.746;2022-11-14T06:56:12;91525.66;;;11.56;52.93
46778;BME280;32536;47.128;8.746;2022-11-14T06:58:45;91524.41;;;11.61;52.93
46778;BME280;32536;47.128;8.746;2022-11-14T07:01:21;91528.22;;;11.63;52.50
46778;BME280;32536;47.128;8.746;2022-11-14T07:03:49;91527.38;;;11.66;52.49
46778;BME280;32536;47.128;8.746;2022-11-14T07:06:24;91533.16;;;11.65;53.54
46778;BME280;32536;47.128;8.746;2022-11-14T07:08:53;91533.53;;;11.67;52.94
46778;BME280;32536;47.128;8.746;2022-11-14T07:11:23;91540.38;;;11.68;52.93
46778;BME280;32536;47.128;8.746;2022-11-14T07:13:57;91539.22;;;11.69;52.45
46778;BME280;32536;47.128;8.746;2022-11-14T07:16:29;91532.31;;;11.68;52.80
46778;BME280;32536;47.128;8.746;2022-11-14T07:19:01;91537.38;;;11.66;52.82
46778;BME280;32536;47.128;8.746;2022-11-14T07:21:32;91527.78;;;11.65;52.67
46778;BME280;32536;47.128;8.746;2022-11-14T07:23:59;91523.31;;;11.58;52.55
46778;BME280;32536;47.128;8.746;2022-11-14T07:26:26;91531.50;;;11.51;52.45
46778;BME280;32536;47.128;8.746;2022-11-14T07:28:53;91529.09;;;11.36;52.89
46778;BME280;32536;47.128;8.746;2022-11-14T07:31:20;91546.47;;;11.28;52.35
46778;BME280;32536;47.128;8.746;2022-11-14T07:33:46;91546.59;;;11.21;52.67
46778;BME280;32536;47.128;8.746;2022-11-14T07:36:14;91555.13;;;11.16;52.99
46778;BME280;32536;47.128;8.746;2022-11-14T07:38:42;91563.56;;;11.14;52.65
46778;BME280;32536;47.128;8.746;2022-11-14T07:41:13;91568.72;;;11.05;52.73
46778;BME280;32536;47.128;8.746;2022-11-14T07:43:42;91565.66;;;11.03;53.21
46778;BME280;32536;47.128;8.746;2022-11-14T07:46:16;91566.50;;;11.00;52.68
46778;BME280;32536;47.128;8.746;2022-11-14T07:48:44;91577.63;;;10.98;53.08
46778;BME280;32536;47.128;8.746;2022-11-14T07:51:20;91588.91;;;10.86;53.29
46778;BME280;32536;47.128;8.746;2022-11-14T07:53:47;91582.34;;;10.91;53.08
46778;BME280;32536;47.128;8.746;2022-11-14T07:56:13;91584.31;;;10.86;52.62
46778;BME280;32536;47.128;8.746;2022-11-14T07:58:41;91592.41;;;10.83;52.83
46778;BME280;32536;47.128;8.746;2022-11-14T08:01:10;91602.88;;;10.73;53.43
46778;BME280;32536;47.128;8.746;2022-11-14T08:03:37;91599.56;;;10.66;53.47
46778;BME280;32536;47.128;8.746;2022-11-14T08:06:10;91612.22;;;10.62;54.23
46778;BME280;32536;47.128;8.746;2022-11-14T08:08:37;91601.13;;;10.63;53.83
46778;BME280;32536;47.128;8.746;2022-11-14T08:11:04;91595.47;;;10.57;53.26
46778;BME280;32536;47.128;8.746;2022-11-14T08:13:31;91600.91;;;10.50;53.63
46778;BME280;32536;47.128;8.746;2022-11-14T08:15:58;91603.75;;;10.39;53.56
46778;BME280;32536;47.128;8.746;2022-11-14T08:18:32;91598.81;;;10.34;54.04
46778;BME280;32536;47.128;8.746;2022-11-14T08:21:03;91578.28;;;10.24;53.89
46778;BME280;32536;47.128;8.746;2022-11-14T08:23:30;91577.91;;;10.25;54.12
46778;BME280;32536;47.128;8.746;2022-11-14T08:25:57;91572.09;;;10.31;54.02
46778;BME280;32536;47.128;8.746;2022-11-14T08:28:24;91589.31;;;10.30;54.07
46778;BME280;32536;47.128;8.746;2022-11-14T08:30:51;91571.03;;;10.24;54.18
46778;BME280;32536;47.128;8.746;2022-11-14T08:33:18;91576.28;;;10.32;53.66
46778;BME280;32536;47.128;8.746;2022-11-14T08:35:44;91585.00;;;10.36;54.60
46778;BME280;32536;47.128;8.746;2022-11-14T08:38:11;91588.09;;;10.38;53.81
46778;BME280;32536;47.128;8.746;2022-11-14T08:40:39;91589.56;;;10.43;54.34
46778;BME280;32536;47.128;8.746;2022-11-14T08:43:05;91596.31;;;10.51;54.31
46778;BME280;32536;47.128;8.746;2022-11-14T08:45:34;91594.34;;;10.55;54.01
46778;BME280;32536;47.128;8.746;2022-11-14T08:48:01;91588.13;;;10.62;54.20
46778;BME280;32536;47.128;8.746;2022-11-14T08:50:28;91589.50;;;10.73;53.75
46778;BME280;32536;47.128;8.746;2022-11-14T08:52:54;91586.81;;;10.73;53.81
46778;BME280;32536;47.128;8.746;2022-11-14T08:55:21;91563.81;;;10.76;52.79
46778;BME280;32536;47.128;8.746;2022-11-14T08:57:51;91585.59;;;10.78;52.71
46778;BME280;32536;47.128;8.746;2022-11-14T09:00:19;91590.13;;;10.81;52.94
46778;BME280;32536;47.128;8.746;2022-11-14T09:02:46;91571.31;;;10.85;53.34
46778;BME280;32536;47.128;8.746;2022-11-14T09:05:13;91585.44;;;10.89;52.73
46778;BME280;32536;47.128;8.746;2022-11-14T09:07:40;91580.66;;;11.00;52.78
46778;BME280;32536;47.128;8.746;2022-11-14T09:10:07;91570.97;;;11.07;52.73
46778;BME280;32536;47.128;8.746;2022-11-14T09:12:34;91568.66;;;11.09;52.89
46778;BME280;32536;47.128;8.746;2022-11-14T09:15:01;91562.88;;;11.10;53.43
46778;BME280;32536;47.128;8.746;2022-11-14T09:17:28;91572.84;;;11.10;52.36
46778;BME280;32536;47.128;8.746;2022-11-14T09:19:55;91587.41;;;11.09;52.33
46778;BME280;32536;47.128;8.746;2022-11-14T09:22:22;91591.16;;;11.15;53.38
46778;BME280;32536;47.128;8.746;2022-11-14T09:24:48;91604.84;;;11.20;52.86
46778;BME280;32536;47.128;8.746;2022-11-14T09:27:16;91599.50;;;11.20;52.24
46778;BME280;32536;47.128;8.746;2022-11-14T09:29:43;91594.41;;;11.26;52.50
46778;BME280;32536;47.128;8.746;2022-11-14T09:32:41;91590.97;;;11.26;51.88
46778;BME280;32536;47.128;8.746;2022-11-14T09:35:08;91593.53;;;11.33;52.69
46778;BME280;32536;47.128;8.746;2022-11-14T09:37:35;91589.22;;;11.39;52.78
46778;BME280;32536;47.128;8.746;2022-11-14T09:40:02;91602.13;;;11.44;52.64
46778;BME280;32536;47.128;8.746;2022-11-14T09:42:57;91606.66;;;11.47;52.76
46778;BME280;32536;47.128;8.746;2022-11-14T09:45:51;91607.25;;;11.59;52.64
46778;BME280;32536;47.128;8.746;2022-11-14T09:48:22;91599.41;;;11.68;52.76
46778;BME280;32536;47.128;8.746;2022-11-14T09:51:24;91602.94;;;11.65;51.61
46778;BME280;32536;47.128;8.746;2022-11-14T09:56:40;91610.19;;;11.64;52.54
46778;BME280;32536;47.128;8.746;2022-11-14T09:59:11;91596.53;;;11.59;49.89
46778;BME280;32536;47.128;8.746;2022-11-14T10:10:47;91597.22;;;11.83;51.67
46778;BME280;32536;47.128;8.746;2022-11-14T10:19:17;91601.16;;;11.98;51.87
46778;BME280;32536;47.128;8.746;2022-11-14T10:27:35;91602.69;;;11.99;51.97
46778;BME280;32536;47.128;8.746;2022-11-14T10:30:15;91604.63;;;11.99;51.92
46778;BME280;32536;47.128;8.746;2022-11-14T10:35:34;91610.19;;;12.08;51.87
46778;BME280;32536;47.128;8.746;2022-11-14T10:41:32;91609.00;;;12.29;51.94
46778;BME280;32536;47.128;8.746;2022-11-14T10:44:01;91607.66;;;12.38;52.17
46778;BME280;32536;47.128;8.746;2022-11-14T10:46:32;91616.34;;;12.45;51.96
46778;BME280;32536;47.128;8.746;2022-11-14T10:49:21;91608.47;;;12.55;52.21
46778;BME280;32536;47.128;8.746;2022-11-14T10:51:52;91602.13;;;12.65;51.70
46778;BME280;32536;47.128;8.746;2022-11-14T10:54:43;91593.13;;;12.72;51.80
46778;BME280;32536;47.128;8.746;2022-11-14T10:57:20;91589.97;;;12.77;51.98
46778;BME280;32536;47.128;8.746;2022-11-14T10:59:48;91588.00;;;12.77;52.16
46778;BME280;32536;47.128;8.746;2022-11-14T11:02:15;91591.72;;;12.84;52.03
46778;BME280;32536;47.128;8.746;2022-11-14T11:04:43;91593.16;;;12.88;52.04
46778;BME280;32536;47.128;8.746;2022-11-14T11:10:00;91591.97;;;12.89;51.84
46778;BME280;32536;47.128;8.746;2022-11-14T11:12:48;91591.53;;;12.91;51.88
46778;BME280;32536;47.128;8.746;2022-11-14T11:15:26;91585.91;;;12.85;52.11
46778;BME280;32536;47.128;8.746;2022-11-14T11:23:33;91586.84;;;12.78;52.56
46778;BME280;32536;47.128;8.746;2022-11-14T11:26:05;91591.13;;;12.76;52.79
46778;BME280;32536;47.128;8.746;2022-11-14T11:28:35;91591.88;;;12.76;53.12
46778;BME280;32536;47.128;8.746;2022-11-14T11:31:05;91589.59;;;12.75;52.80
46778;BME280;32536;47.128;8.746;2022-11-14T11:33:37;91594.91;;;12.78;52.83
46778;BME280;32536;47.128;8.746;2022-11-14T11:36:09;91592.13;;;12.82;52.83
46778;BME280;32536;47.128;8.746;2022-11-14T11:38:40;91599.34;;;12.85;52.80
46778;BME280;32536;47.128;8.746;2022-11-14T11:41:22;91584.66;;;12.90;52.83
46778;BME280;32536;47.128;8.746;2022-11-14T11:43:56;91591.38;;;12.98;52.81
46778;BME280;32536;47.128;8.746;2022-11-14T11:49:36;91591.31;;;13.02;52.95
46778;BME280;32536;47.128;8.746;2022-11-14T11:55:19;91592.03;;;13.02;52.78
46778;BME280;32536;47.128;8.746;2022-11-14T11:58:00;91595.81;;;13.05;52.84
46778;BME280;32536;47.128;8.746;2022-11-14T12:00:28;91589.19;;;13.09;52.85
46778;BME280;32536;47.128;8.746;2022-11-14T12:02:55;91586.84;;;13.11;53.09
46778;BME280;32536;47.128;8.746;2022-11-14T12:10:43;91601.13;;;13.25;52.95
46778;BME280;32536;47.128;8.746;2022-11-14T12:19:00;91609.97;;;13.42;52.67
46778;BME280;32536;47.128;8.746;2022-11-14T12:22:07;91610.97;;;13.48;52.09
46778;BME280;32536;47.128;8.746;2022-11-14T12:30:56;91618.44;;;13.57;51.43
46778;BME280;32536;47.128;8.746;2022-11-14T12:33:36;91615.22;;;13.62;51.61
46778;BME280;32536;47.128;8.746;2022-11-14T12:36:09;91614.03;;;13.63;51.02
46778;BME280;32536;47.128;8.746;2022-11-14T12:38:43;91614.38;;;13.65;50.77
46778;BME280;32536;47.128;8.746;2022-11-14T12:41:24;91612.34;;;13.69;50.54
46778;BME280;32536;47.128;8.746;2022-11-14T13:00:33;91593.38;;;13.89;50.46
46778;BME280;32536;47.128;8.746;2022-11-14T13:03:53;91603.38;;;13.89;48.13
46778;BME280;32536;47.128;8.746;2022-11-14T13:09:31;91610.00;;;14.01;49.63
46778;BME280;32536;47.128;8.746;2022-11-14T13:15:26;91607.09;;;14.08;50.29
46778;BME280;32536;47.128;8.746;2022-11-14T13:18:23;91606.25;;;14.11;50.36
46778;BME280;32536;47.128;8.746;2022-11-14T13:21:28;91601.75;;;14.21;51.12
46778;BME280;32536;47.128;8.746;2022-11-14T13:24:13;91601.88;;;14.30;51.08
46778;BME280;32536;47.128;8.746;2022-11-14T13:32:12;91601.81;;;14.47;50.40
46778;BME280;32536;47.128;8.746;2022-11-14T13:35:31;91603.63;;;14.50;50.39
46778;BME280;32536;47.128;8.746;2022-11-14T13:50:07;91597.50;;;14.49;50.60
46778;BME280;32536;47.128;8.746;2022-11-14T13:52:44;91601.50;;;14.57;50.85
46778;BME280;32536;47.128;8.746;2022-11-14T14:16:17;91612.03;;;14.52;49.96
46778;BME280;32536;47.128;8.746;2022-11-14T14:21:56;91612.91;;;14.49;49.71
46778;BME280;32536;47.128;8.746;2022-11-14T14:30:17;91611.50;;;14.44;49.85
46778;BME280;32536;47.128;8.746;2022-11-14T14:35:35;91620.22;;;14.48;50.67
46778;BME280;32536;47.128;8.746;2022-11-14T14:38:10;91619.81;;;14.50;50.36
46778;BME280;32536;47.128;8.746;2022-11-14T14:40:39;91627.03;;;14.53;50.65
46778;BME280;32536;47.128;8.746;2022-11-14T14:43:14;91626.28;;;14.52;50.41
46778;BME280;32536;47.128;8.746;2022-11-14T14:45:55;91630.47;;;14.53;50.76
46778;BME280;32536;47.128;8.746;2022-11-14T14:48:25;91636.31;;;14.52;50.34
46778;BME280;32536;47.128;8.746;2022-11-14T14:50:55;91633.63;;;14.52;50.52
46778;BME280;32536;47.128;8.746;2022-11-14T14:53:28;91646.00;;;14.49;49.81
46778;BME280;32536;47.128;8.746;2022-11-14T14:56:23;91642.03;;;14.54;50.24
46778;BME280;32536;47.128;8.746;2022-11-14T14:58:51;91635.78;;;14.57;50.50
46778;BME280;32536;47.128;8.746;2022-11-14T15:01:20;91636.41;;;14.48;48.83
46778;BME280;32536;47.128;8.746;2022-11-14T15:06:32;91634.66;;;14.29;49.40
46778;BME280;32536;47.128;8.746;2022-11-14T15:09:09;91638.72;;;14.20;46.65
46778;BME280;32536;47.128;8.746;2022-11-14T15:11:51;91640.22;;;14.21;49.86
46778;BME280;32536;47.128;8.746;2022-11-14T15:14:30;91639.16;;;14.19;49.41
46778;BME280;32536;47.128;8.746;2022-11-14T15:16:59;91642.19;;;14.21;49.72
46778;BME280;32536;47.128;8.746;2022-11-14T15:19:37;91644.63;;;14.15;48.77
46778;BME280;32536;47.128;8.746;2022-11-14T15:24:42;91643.97;;;14.11;49.69
46778;BME280;32536;47.128;8.746;2022-11-14T15:27:20;91644.81;;;14.08;49.64
46778;BME280;32536;47.128;8.746;2022-11-14T15:29:50;91647.94;;;14.06;48.99
46778;BME280;32536;47.128;8.746;2022-11-14T15:32:20;91646.44;;;14.05;49.71
46778;BME280;32536;47.128;8.746;2022-11-14T15:40:37;91648.56;;;13.98;50.17
46778;BME280;32536;47.128;8.746;2022-11-14T15:51:53;91639.81;;;13.93;50.32
46778;BME280;32536;47.128;8.746;2022-11-14T15:54:31;91626.78;;;13.92;50.34
46778;BME280;32536;47.128;8.746;2022-11-14T15:57:00;91612.22;;;13.89;50.58
46778;BME280;32536;47.128;8.746;2022-11-14T15:59:33;91611.31;;;13.80;50.54
46778;BME280;32536;47.128;8.746;2022-11-14T16:02:11;91610.00;;;13.71;49.51